sensor_id;sensor_type;location;lat;lon;timestamp;temperature;humidity
56869;DHT22;42754;0.000;0.000;2023-05-07T00:00:53;15.80;99.90
56869;DHT22;42754;0.000;0.000;2023-05-07T00:03:20;15.80;99.90
56869;DHT22;42754;0.000;0.000;2023-05-07T00:05:46;15.70;99.90
56869;DHT22;42754;0.000;0.000;2023-05-07T00:08:14;15.80;99.90
56869;DHT22;42754;0.000;0.000;2023-05-07T00:10:40;15.70;99.90
56869;DHT22;42754;0.000;0.000;2023-05-07T00:15:36;15.70;99.90
56869;DHT22;42754;0.000;0.000;2023-05-07T00:20:32;15.70;99.90
56869;DHT22;42754;0.000;0.000;2023-05-07T00:22:59;15.60;99.90
56869;DHT22;42754;0.000;0.000;2023-05-07T00:25:24;15.70;99.90
56869;DHT22;42754;0.000;0.000;2023-05-07T00:27:50;15.60;99.90
56869;DHT22;42754;0.000;0.000;2023-05-07T00:30:15;15.60;99.90
56869;DHT22;42754;0.000;0.000;2023-05-07T00:32:46;15.60;99.90
56869;DHT22;42754;0.000;0.000;2023-05-07T00:35:14;15.60;99.90
56869;DHT22;42754;0.000;0.000;2023-05-07T00:37:40;15.60;99.90
56869;DHT22;42754;0.000;0.000;2023-05-07T00:40:06;15.50;99.90
56869;DHT22;42754;0.000;0.000;2023-05-07T00:42:40;15.60;99.90
56869;DHT22;42754;0.000;0.000;2023-05-07T00:45:05;15.60;99.90
56869;DHT22;42754;0.000;0.000;2023-05-07T00:47:34;15.50;99.90
56869;DHT22;42754;0.000;0.000;2023-05-07T00:49:59;15.50;99.90
56869;DHT22;42754;0.000;0.000;2023-05-07T00:54:56;15.50;99.90
56869;DHT22;42754;0.000;0.000;2023-05-07T00:57:23;15.50;99.90
56869;DHT22;42754;0.000;0.000;2023-05-07T00:59:50;15.50;99.90
56869;DHT22;42754;0.000;0.000;2023-05-07T01:02:21;15.40;99.90
56869;DHT22;42754;0.000;0.000;2023-05-07T01:04:56;15.30;99.90
56869;DHT22;42754;0.000;0.000;2023-05-07T01:07:22;15.20;99.90
56869;DHT22;42754;0.000;0.000;2023-05-07T01:12:35;15.20;99.90
56869;DHT22;42754;0.000;0.000;2023-05-07T01:15:02;15.10;99.90
56869;DHT22;42754;0.000;0.000;2023-05-07T01:17:28;15.00;99.90
56869;DHT22;42754;0.000;0.000;2023-05-07T01:19:54;15.00;99.90
56869;DHT22;42754;0.000;0.000;2023-05-07T01:22:27;15.00;99.90
56869;DHT22;42754;0.000;0.000;2023-05-07T01:24:54;15.00;99.90
56869;DHT22;42754;0.000;0.000;2023-05-07T01:27:21;15.10;99.90
56869;DHT22;42754;0.000;0.000;2023-05-07T01:30:03;15.00;99.90
56869;DHT22;42754;0.000;0.000;2023-05-07T01:35:04;15.00;99.90
56869;DHT22;42754;0.000;0.000;2023-05-07T01:37:30;15.00;99.90
56869;DHT22;42754;0.000;0.000;2023-05-07T01:42:33;15.00;99.90
56869;DHT22;42754;0.000;0.000;2023-05-07T01:45:00;15.00;99.90
56869;DHT22;42754;0.000;0.000;2023-05-07T01:47:25;15.00;99.90
56869;DHT22;42754;0.000;0.000;2023-05-07T01:49:56;15.00;99.90
56869;DHT22;42754;0.000;0.000;2023-05-07T01:52:22;15.00;99.90
56869;DHT22;42754;0.000;0.000;2023-05-07T01:54:51;15.00;99.90
56869;DHT22;42754;0.000;0.000;2023-05-07T01:57:16;15.00;99.90
56869;DHT22;42754;0.000;0.000;2023-05-07T01:59:43;14.90;99.90
56869;DHT22;42754;0.000;0.000;2023-05-07T02:02:09;15.00;99.90
56869;DHT22;42754;0.000;0.000;2023-05-07T02:04:34;14.90;99.90
56869;DHT22;42754;0.000;0.000;2023-05-07T02:07:02;14.90;99.90
56869;DHT22;42754;0.000;0.000;2023-05-07T02:09:28;14.90;99.90
56869;DHT22;42754;0.000;0.000;2023-05-07T02:11:54;14.90;99.90
56869;DHT22;42754;0.000;0.000;2023-05-07T02:14:20;14.80;99.90
56869;DHT22;42754;0.000;0.000;2023-05-07T02:16:46;14.80;99.90
56869;DHT22;42754;0.000;0.000;2023-05-07T02:19:11;14.80;99.90
56869;DHT22;42754;0.000;0.000;2023-05-07T02:21:38;14.80;99.90
56869;DHT22;42754;0.000;0.000;2023-05-07T02:24:03;14.70;99.90
56869;DHT22;42754;0.000;0.000;2023-05-07T02:26:30;14.70;99.90
56869;DHT22;42754;0.000;0.000;2023-05-07T02:28:55;14.70;99.90
56869;DHT22;42754;0.000;0.000;2023-05-07T02:31:27;14.60;99.90
56869;DHT22;42754;0.000;0.000;2023-05-07T02:33:53;14.70;99.90
56869;DHT22;42754;0.000;0.000;2023-05-07T02:36:20;14.70;99.90
56869;DHT22;42754;0.000;0.000;2023-05-07T02:38:46;14.70;99.90
56869;DHT22;42754;0.000;0.000;2023-05-07T02:41:12;14.70;99.90
56869;DHT22;42754;0.000;0.000;2023-05-07T02:43:38;14.70;99.90
56869;DHT22;42754;0.000;0.000;2023-05-07T02:46:04;14.60;99.90
56869;DHT22;42754;0.000;0.000;2023-05-07T02:48:30;14.60;99.90
56869;DHT22;42754;0.000;0.000;2023-05-07T02:50:57;14.60;99.90
56869;DHT22;42754;0.000;0.000;2023-05-07T02:53:22;14.70;99.90
56869;DHT22;42754;0.000;0.000;2023-05-07T02:55:50;14.60;99.90
56869;DHT22;42754;0.000;0.000;2023-05-07T02:58:16;14.60;99.90
56869;DHT22;42754;0.000;0.000;2023-05-07T03:00:43;14.60;99.90
56869;DHT22;42754;0.000;0.000;2023-05-07T03:03:09;14.60;99.90
56869;DHT22;42754;0.000;0.000;2023-05-07T03:05:36;14.60;99.90
56869;DHT22;42754;0.000;0.000;2023-05-07T03:08:01;14.50;99.90
56869;DHT22;42754;0.000;0.000;2023-05-07T03:10:29;14.50;99.90
56869;DHT22;42754;0.000;0.000;2023-05-07T03:12:54;14.50;99.90
56869;DHT22;42754;0.000;0.000;2023-05-07T03:15:25;14.50;99.90
56869;DHT22;42754;0.000;0.000;2023-05-07T03:17:51;14.50;99.90
56869;DHT22;42754;0.000;0.000;2023-05-07T03:20:22;14.50;99.90
56869;DHT22;42754;0.000;0.000;2023-05-07T03:22:47;14.50;99.90
56869;DHT22;42754;0.000;0.000;2023-05-07T03:25:14;14.50;99.90
56869;DHT22;42754;0.000;0.000;2023-05-07T03:27:40;14.50;99.90
56869;DHT22;42754;0.000;0.000;2023-05-07T03:30:09;14.50;99.90
56869;DHT22;42754;0.000;0.000;2023-05-07T03:32:35;14.50;99.90
56869;DHT22;42754;0.000;0.000;2023-05-07T03:35:09;14.50;99.90
56869;DHT22;42754;0.000;0.000;2023-05-07T03:37:35;14.50;99.90
56869;DHT22;42754;0.000;0.000;2023-05-07T03:40:02;14.40;99.90
56869;DHT22;42754;0.000;0.000;2023-05-07T03:42:29;14.40;99.90
56869;DHT22;42754;0.000;0.000;2023-05-07T03:44:54;14.40;99.90
56869;DHT22;42754;0.000;0.000;2023-05-07T03:47:32;14.40;99.90
56869;DHT22;42754;0.000;0.000;2023-05-07T03:49:57;14.40;99.90
56869;DHT22;42754;0.000;0.000;2023-05-07T03:52:39;14.40;99.90
56869;DHT22;42754;0.000;0.000;2023-05-07T03:55:05;14.40;99.90
56869;DHT22;42754;0.000;0.000;2023-05-07T03:57:32;14.40;99.90
56869;DHT22;42754;0.000;0.000;2023-05-07T03:59:58;14.40;99.90
56869;DHT22;42754;0.000;0.000;2023-05-07T04:02:27;14.40;99.90
56869;DHT22;42754;0.000;0.000;2023-05-07T04:05:01;14.40;99.90
56869;DHT22;42754;0.000;0.000;2023-05-07T04:07:27;14.40;99.90
56869;DHT22;42754;0.000;0.000;2023-05-07T04:09:58;14.40;99.90
56869;DHT22;42754;0.000;0.000;2023-05-07T04:12:24;14.40;99.90
56869;DHT22;42754;0.000;0.000;2023-05-07T04:14:49;14.40;99.90
56869;DHT22;42754;0.000;0.000;2023-05-07T04:17:15;14.40;99.90
56869;DHT22;42754;0.000;0.000;2023-05-07T04:22:11;14.40;99.90
56869;DHT22;42754;0.000;0.000;2023-05-07T04:24:39;14.40;99.90
56869;DHT22;42754;0.000;0.000;2023-05-07T04:27:04;14.50;99.90
56869;DHT22;42754;0.000;0.000;2023-05-07T04:32:16;14.50;99.90
56869;DHT22;42754;0.000;0.000;2023-05-07T04:34:42;14.50;99.90
56869;DHT22;42754;0.000;0.000;2023-05-07T04:37:08;14.40;99.90
56869;DHT22;42754;0.000;0.000;2023-05-07T04:39:33;14.50;99.90
56869;DHT22;42754;0.000;0.000;2023-05-07T04:42:00;14.40;99.90
56869;DHT22;42754;0.000;0.000;2023-05-07T04:44:26;14.50;99.90
56869;DHT22;42754;0.000;0.000;2023-05-07T04:46:52;14.50;99.90
56869;DHT22;42754;0.000;0.000;2023-05-07T04:49:21;14.50;99.90
56869;DHT22;42754;0.000;0.000;2023-05-07T04:51:46;14.60;99.90
56869;DHT22;42754;0.000;0.000;2023-05-07T04:54:12;14.60;99.90
56869;DHT22;42754;0.000;0.000;2023-05-07T04:56:37;14.50;99.90
56869;DHT22;42754;0.000;0.000;2023-05-07T04:59:11;14.60;99.90
56869;DHT22;42754;0.000;0.000;2023-05-07T05:01:36;14.50;99.90
56869;DHT22;42754;0.000;0.000;2023-05-07T05:04:02;14.50;99.90
56869;DHT22;42754;0.000;0.000;2023-05-07T05:06:28;14.60;99.90
56869;DHT22;42754;0.000;0.000;2023-05-07T05:08:54;14.50;99.90
56869;DHT22;42754;0.000;0.000;2023-05-07T05:11:22;14.50;99.90
56869;DHT22;42754;0.000;0.000;2023-05-07T05:13:49;14.40;99.90
56869;DHT22;42754;0.000;0.000;2023-05-07T05:16:15;14.40;99.90
56869;DHT22;42754;0.000;0.000;2023-05-07T05:18:41;14.50;99.90
56869;DHT22;42754;0.000;0.000;2023-05-07T05:21:07;14.40;99.90
56869;DHT22;42754;0.000;0.000;2023-05-07T05:23:33;14.50;99.90
56869;DHT22;42754;0.000;0.000;2023-05-07T05:26:01;14.50;99.90
56869;DHT22;42754;0.000;0.000;2023-05-07T05:28:26;14.50;99.90
56869;DHT22;42754;0.000;0.000;2023-05-07T05:30:53;14.50;99.90
56869;DHT22;42754;0.000;0.000;2023-05-07T05:33:18;14.50;99.90
56869;DHT22;42754;0.000;0.000;2023-05-07T05:35:44;14.60;99.90
56869;DHT22;42754;0.000;0.000;2023-05-07T05:38:10;14.60;99.90
56869;DHT22;42754;0.000;0.000;2023-05-07T05:40:49;14.60;99.90
56869;DHT22;42754;0.000;0.000;2023-05-07T05:43:14;14.60;99.90
56869;DHT22;42754;0.000;0.000;2023-05-07T05:45:42;14.60;99.90
56869;DHT22;42754;0.000;0.000;2023-05-07T05:48:07;14.60;99.90
56869;DHT22;42754;0.000;0.000;2023-05-07T05:50:46;14.60;99.90
56869;DHT22;42754;0.000;0.000;2023-05-07T05:53:11;14.60;99.90
56869;DHT22;42754;0.000;0.000;2023-05-07T05:55:42;14.50;99.90
56869;DHT22;42754;0.000;0.000;2023-05-07T05:58:08;14.50;99.90
56869;DHT22;42754;0.000;0.000;2023-05-07T06:00:36;14.60;99.90
56869;DHT22;42754;0.000;0.000;2023-05-07T06:03:02;14.60;99.90
56869;DHT22;42754;0.000;0.000;2023-05-07T06:05:27;14.70;99.90
56869;DHT22;42754;0.000;0.000;2023-05-07T06:08:08;14.70;99.90
56869;DHT22;42754;0.000;0.000;2023-05-07T06:10:35;14.60;99.90
56869;DHT22;42754;0.000;0.000;2023-05-07T06:15:51;14.70;99.90
56869;DHT22;42754;0.000;0.000;2023-05-07T06:18:18;14.70;99.90
56869;DHT22;42754;0.000;0.000;2023-05-07T06:20:44;14.70;99.90
56869;DHT22;42754;0.000;0.000;2023-05-07T06:23:10;14.70;99.90
56869;DHT22;42754;0.000;0.000;2023-05-07T06:25:36;14.70;99.90
56869;DHT22;42754;0.000;0.000;2023-05-07T06:28:08;14.70;99.90
56869;DHT22;42754;0.000;0.000;2023-05-07T06:30:36;14.70;99.90
56869;DHT22;42754;0.000;0.000;2023-05-07T06:33:03;14.70;99.90
56869;DHT22;42754;0.000;0.000;2023-05-07T06:35:28;14.80;99.90
56869;DHT22;42754;0.000;0.000;2023-05-07T06:37:54;14.80;99.90
56869;DHT22;42754;0.000;0.000;2023-05-07T06:40:19;14.90;99.90
56869;DHT22;42754;0.000;0.000;2023-05-07T06:42:45;14.80;99.90
56869;DHT22;42754;0.000;0.000;2023-05-07T06:45:10;14.80;99.90
56869;DHT22;42754;0.000;0.000;2023-05-07T06:47:36;14.80;99.90
56869;DHT22;42754;0.000;0.000;2023-05-07T06:50:01;14.80;99.90
56869;DHT22;42754;0.000;0.000;2023-05-07T06:52:27;14.80;99.90
56869;DHT22;42754;0.000;0.000;2023-05-07T06:54:53;14.90;99.90
56869;DHT22;42754;0.000;0.000;2023-05-07T06:57:19;15.00;99.90
56869;DHT22;42754;0.000;0.000;2023-05-07T06:59:45;15.00;99.90
56869;DHT22;42754;0.000;0.000;2023-05-07T07:02:10;15.10;99.90
56869;DHT22;42754;0.000;0.000;2023-05-07T07:04:39;15.00;99.90
56869;DHT22;42754;0.000;0.000;2023-05-07T07:07:05;14.90;99.90
56869;DHT22;42754;0.000;0.000;2023-05-07T07:09:33;14.90;99.90
56869;DHT22;42754;0.000;0.000;2023-05-07T07:11:58;15.00;99.90
56869;DHT22;42754;0.000;0.000;2023-05-07T07:16:53;15.00;99.90
56869;DHT22;42754;0.000;0.000;2023-05-07T07:19:35;15.00;99.90
56869;DHT22;42754;0.000;0.000;2023-05-07T07:22:01;15.00;99.90
56869;DHT22;42754;0.000;0.000;2023-05-07T07:24:29;15.10;99.90
56869;DHT22;42754;0.000;0.000;2023-05-07T07:26:54;15.10;99.90
56869;DHT22;42754;0.000;0.000;2023-05-07T07:29:20;15.10;99.90
56869;DHT22;42754;0.000;0.000;2023-05-07T07:31:47;15.20;99.90
56869;DHT22;42754;0.000;0.000;2023-05-07T07:34:13;15.20;99.90
56869;DHT22;42754;0.000;0.000;2023-05-07T07:36:38;15.20;99.90
56869;DHT22;42754;0.000;0.000;2023-05-07T07:39:06;15.30;99.90
56869;DHT22;42754;0.000;0.000;2023-05-07T07:41:32;15.40;99.90
56869;DHT22;42754;0.000;0.000;2023-05-07T07:44:02;15.50;99.90
56869;DHT22;42754;0.000;0.000;2023-05-07T07:46:28;15.50;99.90
56869;DHT22;42754;0.000;0.000;2023-05-07T07:48:54;15.50;99.90
56869;DHT22;42754;0.000;0.000;2023-05-07T07:51:20;15.50;99.90
56869;DHT22;42754;0.000;0.000;2023-05-07T07:53:48;15.60;99.90
56869;DHT22;42754;0.000;0.000;2023-05-07T07:56:13;15.60;99.90
56869;DHT22;42754;0.000;0.000;2023-05-07T07:58:40;15.70;99.90
56869;DHT22;42754;0.000;0.000;2023-05-07T08:01:05;15.80;99.90
56869;DHT22;42754;0.000;0.000;2023-05-07T08:03:31;15.80;99.90
56869;DHT22;42754;0.000;0.000;2023-05-07T08:05:57;15.80;99.90
56869;DHT22;42754;0.000;0.000;2023-05-07T08:08:24;16.00;99.90
56869;DHT22;42754;0.000;0.000;2023-05-07T08:10:49;16.10;99.90
56869;DHT22;42754;0.000;0.000;2023-05-07T08:13:17;16.30;99.90
56869;DHT22;42754;0.000;0.000;2023-05-07T08:15:42;16.40;99.90
56869;DHT22;42754;0.000;0.000;2023-05-07T08:18:08;16.30;99.90
56869;DHT22;42754;0.000;0.000;2023-05-07T08:20:34;16.20;99.90
56869;DHT22;42754;0.000;0.000;2023-05-07T08:23:08;16.30;99.90
56869;DHT22;42754;0.000;0.000;2023-05-07T08:25:34;16.40;99.90
56869;DHT22;42754;0.000;0.000;2023-05-07T08:28:02;16.40;99.90
56869;DHT22;42754;0.000;0.000;2023-05-07T08:30:28;16.50;99.90
56869;DHT22;42754;0.000;0.000;2023-05-07T08:32:55;16.60;99.90
56869;DHT22;42754;0.000;0.000;2023-05-07T08:35:21;16.50;99.90
56869;DHT22;42754;0.000;0.000;2023-05-07T08:37:47;16.50;99.90
56869;DHT22;42754;0.000;0.000;2023-05-07T08:40:13;16.60;99.90
56869;DHT22;42754;0.000;0.000;2023-05-07T08:42:40;16.60;99.90
56869;DHT22;42754;0.000;0.000;2023-05-07T08:45:09;16.60;99.90
56869;DHT22;42754;0.000;0.000;2023-05-07T08:47:39;16.60;99.90
56869;DHT22;42754;0.000;0.000;2023-05-07T08:50:05;16.60;99.90
56869;DHT22;42754;0.000;0.000;2023-05-07T08:52:32;16.60;99.90
56869;DHT22;42754;0.000;0.000;2023-05-07T08:54:58;16.70;99.90
56869;DHT22;42754;0.000;0.000;2023-05-07T08:57:24;16.80;99.90
56869;DHT22;42754;0.000;0.000;2023-05-07T08:59:49;16.90;99.90
56869;DHT22;42754;0.000;0.000;2023-05-07T09:04:45;16.90;99.90
56869;DHT22;42754;0.000;0.000;2023-05-07T09:07:11;17.10;99.90
56869;DHT22;42754;0.000;0.000;2023-05-07T09:09:36;17.20;99.90
56869;DHT22;42754;0.000;0.000;2023-05-07T09:12:02;17.30;99.90
56869;DHT22;42754;0.000;0.000;2023-05-07T09:14:29;17.60;99.90
56869;DHT22;42754;0.000;0.000;2023-05-07T09:16:58;17.70;99.90
56869;DHT22;42754;0.000;0.000;2023-05-07T09:19:24;18.00;99.90
56869;DHT22;42754;0.000;0.000;2023-05-07T09:22:00;18.40;99.90
56869;DHT22;42754;0.000;0.000;2023-05-07T09:24:26;18.60;99.90
56869;DHT22;42754;0.000;0.000;2023-05-07T09:26:53;18.80;99.90
56869;DHT22;42754;0.000;0.000;2023-05-07T09:29:20;18.60;99.90
56869;DHT22;42754;0.000;0.000;2023-05-07T09:31:50;18.60;99.90
56869;DHT22;42754;0.000;0.000;2023-05-07T09:34:16;18.60;99.90
56869;DHT22;42754;0.000;0.000;2023-05-07T09:36:46;18.40;99.90
56869;DHT22;42754;0.000;0.000;2023-05-07T09:39:12;18.40;99.90
56869;DHT22;42754;0.000;0.000;2023-05-07T09:41:47;18.60;99.90
56869;DHT22;42754;0.000;0.000;2023-05-07T09:44:13;18.70;99.90
56869;DHT22;42754;0.000;0.000;2023-05-07T09:46:42;18.70;99.90
56869;DHT22;42754;0.000;0.000;2023-05-07T09:49:07;18.60;99.90
56869;DHT22;42754;0.000;0.000;2023-05-07T09:51:49;18.90;99.90
56869;DHT22;42754;0.000;0.000;2023-05-07T09:54:15;19.00;99.90
56869;DHT22;42754;0.000;0.000;2023-05-07T09:56:58;19.20;99.90
56869;DHT22;42754;0.000;0.000;2023-05-07T09:59:23;19.30;99.90
56869;DHT22;42754;0.000;0.000;2023-05-07T10:02:08;19.50;99.90
56869;DHT22;42754;0.000;0.000;2023-05-07T10:04:36;19.60;99.90
56869;DHT22;42754;0.000;0.000;2023-05-07T10:07:02;19.90;99.90
56869;DHT22;42754;0.000;0.000;2023-05-07T10:09:28;20.40;99.90
56869;DHT22;42754;0.000;0.000;2023-05-07T10:11:54;20.60;99.90
56869;DHT22;42754;0.000;0.000;2023-05-07T10:14:21;21.00;99.90
56869;DHT22;42754;0.000;0.000;2023-05-07T10:16:47;20.90;99.90
56869;DHT22;42754;0.000;0.000;2023-05-07T10:19:12;20.80;99.90
56869;DHT22;42754;0.000;0.000;2023-05-07T10:21:40;20.90;99.90
56869;DHT22;42754;0.000;0.000;2023-05-07T10:24:16;20.80;99.90
56869;DHT22;42754;0.000;0.000;2023-05-07T10:26:45;20.70;99.90
56869;DHT22;42754;0.000;0.000;2023-05-07T10:29:37;20.60;99.90
56869;DHT22;42754;0.000;0.000;2023-05-07T10:34:36;20.20;99.90
56869;DHT22;42754;0.000;0.000;2023-05-07T10:37:02;20.00;99.90
56869;DHT22;42754;0.000;0.000;2023-05-07T10:39:29;20.10;99.90
56869;DHT22;42754;0.000;0.000;2023-05-07T10:41:54;20.20;99.90
56869;DHT22;42754;0.000;0.000;2023-05-07T10:44:27;20.30;99.90
56869;DHT22;42754;0.000;0.000;2023-05-07T10:47:03;20.30;99.90
56869;DHT22;42754;0.000;0.000;2023-05-07T10:49:30;20.60;99.90
56869;DHT22;42754;0.000;0.000;2023-05-07T10:52:18;20.60;99.90
56869;DHT22;42754;0.000;0.000;2023-05-07T10:54:42;20.70;99.90
56869;DHT22;42754;0.000;0.000;2023-05-07T11:05:25;21.30;99.90
56869;DHT22;42754;0.000;0.000;2023-05-07T11:07:59;21.50;99.90
56869;DHT22;42754;0.000;0.000;2023-05-07T11:13:11;21.90;99.90
56869;DHT22;42754;0.000;0.000;2023-05-07T11:15:41;22.10;99.90
56869;DHT22;42754;0.000;0.000;2023-05-07T11:18:08;22.20;99.90
56869;DHT22;42754;0.000;0.000;2023-05-07T11:23:57;22.50;99.90
56869;DHT22;42754;0.000;0.000;2023-05-07T11:26:04;22.20;99.90
56869;DHT22;42754;0.000;0.000;2023-05-07T11:28:38;22.00;99.90
56869;DHT22;42754;0.000;0.000;2023-05-07T11:31:04;22.20;99.90
56869;DHT22;42754;0.000;0.000;2023-05-07T11:33:30;22.10;99.90
56869;DHT22;42754;0.000;0.000;2023-05-07T11:35:56;21.90;99.90
56869;DHT22;42754;0.000;0.000;2023-05-07T11:38:22;22.40;99.90
56869;DHT22;42754;0.000;0.000;2023-05-07T11:40:49;22.40;99.90
56869;DHT22;42754;0.000;0.000;2023-05-07T11:43:15;22.40;99.90
56869;DHT22;42754;0.000;0.000;2023-05-07T11:45:40;22.80;99.90
56869;DHT22;42754;0.000;0.000;2023-05-07T11:48:06;22.80;99.90
56869;DHT22;42754;0.000;0.000;2023-05-07T11:50:31;22.80;99.90
56869;DHT22;42754;0.000;0.000;2023-05-07T11:52:57;23.00;99.90
56869;DHT22;42754;0.000;0.000;2023-05-07T11:55:23;23.10;99.90
56869;DHT22;42754;0.000;0.000;2023-05-07T11:57:55;22.90;99.90
56869;DHT22;42754;0.000;0.000;2023-05-07T12:00:20;22.70;99.90
56869;DHT22;42754;0.000;0.000;2023-05-07T12:02:46;22.90;99.90
56869;DHT22;42754;0.000;0.000;2023-05-07T12:05:12;22.70;99.90
56869;DHT22;42754;0.000;0.000;2023-05-07T12:07:37;22.60;99.90
56869;DHT22;42754;0.000;0.000;2023-05-07T12:10:06;22.90;99.90
56869;DHT22;42754;0.000;0.000;2023-05-07T12:12:37;22.70;99.90
56869;DHT22;42754;0.000;0.000;2023-05-07T12:15:03;22.40;99.90
56869;DHT22;42754;0.000;0.000;2023-05-07T12:17:28;22.20;99.90
56869;DHT22;42754;0.000;0.000;2023-05-07T12:19:54;22.10;99.90
56869;DHT22;42754;0.000;0.000;2023-05-07T12:22:20;22.20;99.90
56869;DHT22;42754;0.000;0.000;2023-05-07T12:24:47;22.30;99.90
56869;DHT22;42754;0.000;0.000;2023-05-07T12:27:13;22.30;99.90
56869;DHT22;42754;0.000;0.000;2023-05-07T12:29:39;22.50;99.90
56869;DHT22;42754;0.000;0.000;2023-05-07T12:32:06;22.60;99.90
56869;DHT22;42754;0.000;0.000;2023-05-07T12:34:32;22.50;99.90
56869;DHT22;42754;0.000;0.000;2023-05-07T12:36:57;22.80;99.90
56869;DHT22;42754;0.000;0.000;2023-05-07T12:39:27;22.90;99.90
56869;DHT22;42754;0.000;0.000;2023-05-07T12:41:56;23.10;99.90
56869;DHT22;42754;0.000;0.000;2023-05-07T12:44:23;23.30;99.90
56869;DHT22;42754;0.000;0.000;2023-05-07T12:46:49;23.10;99.90
56869;DHT22;42754;0.000;0.000;2023-05-07T12:49:15;23.10;99.90
56869;DHT22;42754;0.000;0.000;2023-05-07T12:51:40;23.20;99.90
56869;DHT22;42754;0.000;0.000;2023-05-07T12:54:06;23.00;99.60
56869;DHT22;42754;0.000;0.000;2023-05-07T12:56:35;22.80;99.80
56869;DHT22;42754;0.000;0.000;2023-05-07T12:59:02;23.00;99.90
56869;DHT22;42754;0.000;0.000;2023-05-07T13:01:31;23.20;99.90
56869;DHT22;42754;0.000;0.000;2023-05-07T13:04:00;23.10;99.90
56869;DHT22;42754;0.000;0.000;2023-05-07T13:06:29;23.00;99.90
56869;DHT22;42754;0.000;0.000;2023-05-07T13:08:55;22.90;99.90
56869;DHT22;42754;0.000;0.000;2023-05-07T13:11:22;22.70;99.90
56869;DHT22;42754;0.000;0.000;2023-05-07T13:13:47;22.70;99.90
56869;DHT22;42754;0.000;0.000;2023-05-07T13:16:13;22.40;99.90
56869;DHT22;42754;0.000;0.000;2023-05-07T13:18:39;22.40;99.90
56869;DHT22;42754;0.000;0.000;2023-05-07T13:21:05;22.20;99.90
56869;DHT22;42754;0.000;0.000;2023-05-07T13:23:31;22.20;99.90
56869;DHT22;42754;0.000;0.000;2023-05-07T13:25:56;22.00;99.90
56869;DHT22;42754;0.000;0.000;2023-05-07T13:28:25;21.90;99.90
56869;DHT22;42754;0.000;0.000;2023-05-07T13:30:54;21.90;99.90
56869;DHT22;42754;0.000;0.000;2023-05-07T13:33:20;21.80;99.90
56869;DHT22;42754;0.000;0.000;2023-05-07T13:35:46;21.60;99.90
56869;DHT22;42754;0.000;0.000;2023-05-07T13:38:11;21.60;99.90
56869;DHT22;42754;0.000;0.000;2023-05-07T13:40:37;21.50;99.90
56869;DHT22;42754;0.000;0.000;2023-05-07T13:43:02;21.30;99.90
56869;DHT22;42754;0.000;0.000;2023-05-07T13:45:28;21.20;99.90
56869;DHT22;42754;0.000;0.000;2023-05-07T13:47:55;21.20;99.90
56869;DHT22;42754;0.000;0.000;2023-05-07T13:50:20;21.20;99.90
56869;DHT22;42754;0.000;0.000;2023-05-07T13:52:46;21.20;99.90
56869;DHT22;42754;0.000;0.000;2023-05-07T13:55:19;21.10;99.90
56869;DHT22;42754;0.000;0.000;2023-05-07T13:57:45;21.10;99.90
56869;DHT22;42754;0.000;0.000;2023-05-07T14:00:11;21.00;99.90
56869;DHT22;42754;0.000;0.000;2023-05-07T14:02:37;20.90;99.90
56869;DHT22;42754;0.000;0.000;2023-05-07T14:05:02;20.90;99.90
56869;DHT22;42754;0.000;0.000;2023-05-07T14:07:28;20.90;99.90
56869;DHT22;42754;0.000;0.000;2023-05-07T14:09:54;20.80;99.90
56869;DHT22;42754;0.000;0.000;2023-05-07T14:12:20;20.80;99.90
56869;DHT22;42754;0.000;0.000;2023-05-07T14:14:45;20.80;99.90
56869;DHT22;42754;0.000;0.000;2023-05-07T14:17:13;20.80;99.90
56869;DHT22;42754;0.000;0.000;2023-05-07T14:19:38;20.70;99.90
56869;DHT22;42754;0.000;0.000;2023-05-07T14:22:06;20.70;99.90
56869;DHT22;42754;0.000;0.000;2023-05-07T14:24:31;20.50;99.90
56869;DHT22;42754;0.000;0.000;2023-05-07T14:26:57;20.30;99.90
56869;DHT22;42754;0.000;0.000;2023-05-07T14:29:22;20.30;99.90
56869;DHT22;42754;0.000;0.000;2023-05-07T14:31:48;20.10;99.90
56869;DHT22;42754;0.000;0.000;2023-05-07T14:34:13;19.90;99.90
56869;DHT22;42754;0.000;0.000;2023-05-07T14:36:39;19.80;99.90
56869;DHT22;42754;0.000;0.000;2023-05-07T14:39:05;19.60;99.90
56869;DHT22;42754;0.000;0.000;2023-05-07T14:41:33;19.50;99.90
56869;DHT22;42754;0.000;0.000;2023-05-07T14:43:58;19.30;99.90
56869;DHT22;42754;0.000;0.000;2023-05-07T14:46:24;19.20;99.90
56869;DHT22;42754;0.000;0.000;2023-05-07T14:48:50;19.30;99.90
56869;DHT22;42754;0.000;0.000;2023-05-07T14:51:16;19.30;99.90
56869;DHT22;42754;0.000;0.000;2023-05-07T14:53:42;19.30;99.90
56869;DHT22;42754;0.000;0.000;2023-05-07T14:56:07;19.30;99.90
56869;DHT22;42754;0.000;0.000;2023-05-07T14:58:33;19.20;99.90
56869;DHT22;42754;0.000;0.000;2023-05-07T15:01:00;19.20;99.90
56869;DHT22;42754;0.000;0.000;2023-05-07T15:03:26;19.30;99.90
56869;DHT22;42754;0.000;0.000;2023-05-07T15:05:54;19.40;99.90
56869;DHT22;42754;0.000;0.000;2023-05-07T15:10:51;19.00;99.90
56869;DHT22;42754;0.000;0.000;2023-05-07T15:13:17;18.90;99.90
56869;DHT22;42754;0.000;0.000;2023-05-07T15:15:43;19.00;99.90
56869;DHT22;42754;0.000;0.000;2023-05-07T15:18:12;19.10;99.90
56869;DHT22;42754;0.000;0.000;2023-05-07T15:20:38;19.10;99.90
56869;DHT22;42754;0.000;0.000;2023-05-07T15:23:06;19.00;99.90
56869;DHT22;42754;0.000;0.000;2023-05-07T15:25:35;18.80;99.90
56869;DHT22;42754;0.000;0.000;2023-05-07T15:28:02;18.70;99.90
56869;DHT22;42754;0.000;0.000;2023-05-07T15:30:27;18.70;99.90
56869;DHT22;42754;0.000;0.000;2023-05-07T15:33:01;18.70;99.90
56869;DHT22;42754;0.000;0.000;2023-05-07T15:35:26;18.60;99.90
56869;DHT22;42754;0.000;0.000;2023-05-07T15:37:53;18.60;99.90
56869;DHT22;42754;0.000;0.000;2023-05-07T15:40:19;18.70;99.90
56869;DHT22;42754;0.000;0.000;2023-05-07T15:42:56;18.70;99.90
56869;DHT22;42754;0.000;0.000;2023-05-07T15:45:22;18.70;99.90
56869;DHT22;42754;0.000;0.000;2023-05-07T15:47:48;18.60;99.90
56869;DHT22;42754;0.000;0.000;2023-05-07T15:50:14;18.70;99.90
56869;DHT22;42754;0.000;0.000;2023-05-07T15:52:48;19.00;99.90
56869;DHT22;42754;0.000;0.000;2023-05-07T15:55:13;19.20;99.90
56869;DHT22;42754;0.000;0.000;2023-05-07T15:57:44;19.30;99.90
56869;DHT22;42754;0.000;0.000;2023-05-07T16:00:10;19.30;99.90
56869;DHT22;42754;0.000;0.000;2023-05-07T16:02:36;19.40;99.90
56869;DHT22;42754;0.000;0.000;2023-05-07T16:05:03;19.50;99.90
56869;DHT22;42754;0.000;0.000;2023-05-07T16:07:29;19.50;99.90
56869;DHT22;42754;0.000;0.000;2023-05-07T16:09:55;19.40;99.90
56869;DHT22;42754;0.000;0.000;2023-05-07T16:12:21;19.40;99.90
56869;DHT22;42754;0.000;0.000;2023-05-07T16:14:55;19.30;99.90
56869;DHT22;42754;0.000;0.000;2023-05-07T16:17:21;19.20;99.90
56869;DHT22;42754;0.000;0.000;2023-05-07T16:22:17;19.10;99.90
56869;DHT22;42754;0.000;0.000;2023-05-07T16:24:44;19.10;99.90
56869;DHT22;42754;0.000;0.000;2023-05-07T16:27:10;19.10;99.90
56869;DHT22;42754;0.000;0.000;2023-05-07T16:32:05;18.90;99.90
56869;DHT22;42754;0.000;0.000;2023-05-07T16:34:34;18.90;99.90
56869;DHT22;42754;0.000;0.000;2023-05-07T16:36:59;18.80;99.90